Etusivu
METAR-TAF:

METAR-TAF

Lentoasemat :

Land O' Lakes, Wisconsin, Yhdysvallat

Leveyspiiri: 46-09-14N, Pituuspiiri: 089-12-43W, korkeus merenpinnasta: 520 m

Tämänhetkinen sää

Tämä raportti tehtiin 29 minuuttia sitten, kello 21.15 UTC
Tuuli 4 kn idästä
Lämpötila 20°C
Kosteus 40%
Ilmanpaine 1010 hPa
Näkyvyys: 16.1 km
Hajanaisia pilviä 6000 ft:n korkeudessa
Hajanaisia pilviä 7000 ft:n korkeudessa
Hajonneita pilviä 8000 ft:n korkeudessa

METAR: KLNL 192115Z AUTO 08004KT 10SM SCT060 SCT070 BKN080 20/06 A2983 RMK AO2 T02040063

Aika: 16:44 (21:44 UTC)


TAF: puuttuu

Säähavainnot ja -ennusteet yli 4000 lentoasemalta (METAR- ja TAF-raportit).

Käytössä olevat sääasemat on merkitty karttaan keltaisilla ja punaisilla pisteillä.

Aseta hiiri pisteen päälle nähdäksesi sääaseman nimen.

Klikkaa sitten nähdäksesi säähavainnot ja -ennusteet.

Kartan vaihtaminen: klikkaa mustalla rastilla varustettuja vihreitä pisteitä, niin voit zoomata sisään; viivalla varustettua vihreää pistettä, niin voit zoomata ulos tai vihreitä nuolia, niin pääset viereisille kartoille.


METAR-TAF: